createdAt,value
2023-03-20T00:00:24.477Z,83.31
2023-03-20T00:02:58.074Z,83.26
2023-03-20T00:05:28.323Z,83.66
2023-03-20T00:08:02.034Z,83.35
2023-03-20T00:10:46.029Z,83.37
2023-03-20T00:13:35.104Z,83.37
2023-03-20T00:16:01.801Z,82.86
2023-03-20T00:18:36.098Z,83.03
2023-03-20T00:21:09.117Z,82.83
2023-03-20T00:23:36.131Z,82.68
2023-03-20T00:26:09.053Z,82.74
2023-03-20T00:28:40.855Z,82.67
2023-03-20T00:31:33.129Z,82.66
2023-03-20T00:34:02.414Z,82.94
2023-03-20T00:36:35.075Z,83.08
2023-03-20T00:39:02.030Z,83.17
2023-03-20T00:41:39.139Z,82.92
2023-03-20T00:44:28.211Z,83.33
2023-03-20T00:47:09.122Z,83.62
2023-03-20T00:49:36.219Z,83.53
2023-03-20T00:52:11.049Z,83.42
2023-03-20T00:54:37.622Z,83.31
2023-03-20T00:57:16.110Z,83.51
2023-03-20T00:59:53.439Z,83.37
2023-03-20T01:02:28.202Z,83.61
2023-03-20T01:05:02.201Z,83.23
2023-03-20T01:07:28.904Z,83.37
2023-03-20T01:10:02.069Z,83.47
2023-03-20T01:12:35.121Z,83.14
2023-03-20T01:15:08.122Z,83.24
2023-03-20T01:17:34.694Z,83.65
2023-03-20T01:20:08.145Z,83.76
2023-03-20T01:22:34.658Z,83.49
2023-03-20T01:25:08.203Z,82.93
2023-03-20T01:27:34.842Z,82.75
2023-03-20T01:30:08.212Z,82.65
2023-03-20T01:32:34.918Z,82.71
2023-03-20T01:35:08.131Z,82.89
2023-03-20T01:37:34.782Z,82.72
2023-03-20T01:40:08.070Z,82.91
2023-03-20T01:42:34.698Z,82.73
2023-03-20T01:45:08.129Z,82.93
2023-03-20T01:47:42.223Z,83.00
2023-03-20T01:50:35.180Z,82.92
2023-03-20T01:53:25.029Z,83.06
2023-03-20T01:56:02.129Z,83.10
2023-03-20T01:58:44.252Z,83.36
2023-03-20T02:01:20.140Z,83.06
2023-03-20T02:03:50.029Z,83.29
2023-03-20T02:06:23.110Z,83.40
2023-03-20T02:08:52.402Z,83.27
2023-03-20T02:11:29.155Z,83.34
2023-03-20T02:14:05.096Z,83.21
2023-03-20T02:16:31.704Z,83.03
2023-03-20T02:19:05.161Z,83.00
2023-03-20T02:21:56.517Z,82.94
2023-03-20T02:25:01.125Z,82.87
2023-03-20T02:27:54.177Z,82.79
2023-03-20T02:30:49.198Z,82.54
2023-03-20T02:33:22.140Z,82.53
2023-03-20T02:36:06.714Z,82.40
2023-03-20T02:39:03.161Z,82.36
2023-03-20T02:41:39.190Z,82.49
2023-03-20T02:44:39.123Z,82.66
2023-03-20T02:47:27.110Z,82.44
2023-03-20T02:50:07.254Z,82.68
2023-03-20T02:52:49.185Z,82.51
2023-03-20T02:55:18.418Z,82.11
2023-03-20T02:58:07.170Z,82.11
2023-03-20T03:00:54.158Z,82.60
2023-03-20T03:03:41.234Z,82.63
2023-03-20T03:06:30.205Z,82.49
2023-03-20T03:09:12.787Z,82.77
2023-03-20T03:11:52.183Z,82.32
2023-03-20T03:14:53.190Z,82.35
2023-03-20T03:17:30.141Z,82.51
2023-03-20T03:20:02.483Z,82.54
2023-03-20T03:22:36.149Z,82.58
2023-03-20T03:25:09.235Z,82.57
2023-03-20T03:27:40.490Z,82.61
2023-03-20T03:30:28.259Z,82.47
2023-03-20T03:33:22.223Z,82.67
2023-03-20T03:35:56.203Z,82.55
2023-03-20T03:38:39.183Z,82.63
2023-03-20T03:41:39.179Z,82.56
2023-03-20T03:44:35.198Z,82.65
2023-03-20T03:47:14.226Z,83.14
2023-03-20T03:49:46.178Z,82.99
2023-03-20T03:52:26.163Z,82.88
2023-03-20T03:55:08.177Z,82.61
2023-03-20T03:57:51.310Z,82.81
2023-03-20T04:00:22.658Z,82.70
2023-03-20T04:03:00.209Z,82.94
2023-03-20T04:05:38.360Z,82.70
2023-03-20T04:08:06.493Z,82.72
2023-03-20T04:10:40.229Z,82.98
2023-03-20T04:13:06.930Z,82.71
2023-03-20T04:15:40.345Z,82.42
2023-03-20T04:18:13.145Z,82.29
2023-03-20T04:20:46.216Z,81.60
2023-03-20T04:23:20.234Z,81.72
2023-03-20T04:25:54.152Z,81.41
2023-03-20T04:28:20.773Z,81.74
2023-03-20T04:31:03.219Z,81.71
2023-03-20T04:33:36.209Z,81.66
2023-03-20T04:36:09.821Z,81.60
2023-03-20T04:38:43.233Z,81.27
2023-03-20T04:41:09.915Z,81.16
2023-03-20T04:43:43.269Z,81.26
2023-03-20T04:46:10.009Z,81.26
2023-03-20T04:48:50.226Z,81.61
2023-03-20T04:51:23.347Z,81.33
2023-03-20T04:53:56.175Z,81.18
2023-03-20T04:56:29.321Z,81.46
2023-03-20T04:58:55.957Z,81.41
2023-03-20T05:01:30.282Z,81.37
2023-03-20T05:04:01.009Z,81.35
2023-03-20T05:06:38.213Z,81.27
2023-03-20T05:09:05.572Z,81.21
2023-03-20T05:11:38.198Z,80.65
2023-03-20T05:14:05.217Z,80.79
2023-03-20T05:16:45.315Z,80.34
2023-03-20T05:19:11.928Z,79.99
2023-03-20T05:21:38.410Z,80.16
2023-03-20T05:24:12.223Z,79.66
2023-03-20T05:26:45.268Z,79.34
2023-03-20T05:29:11.945Z,78.89
2023-03-20T05:31:45.202Z,78.72
2023-03-20T05:34:11.757Z,78.70
2023-03-20T05:36:45.271Z,78.53
2023-03-20T05:39:11.844Z,78.66
2023-03-20T05:41:38.508Z,78.66
2023-03-20T05:44:12.327Z,78.79
2023-03-20T05:46:59.252Z,79.07
2023-03-20T05:49:32.251Z,78.91
2023-03-20T05:51:58.874Z,78.99
2023-03-20T05:54:32.245Z,78.91
2023-03-20T05:56:59.322Z,79.07
2023-03-20T05:59:33.224Z,79.02
2023-03-20T06:01:59.816Z,79.39
2023-03-20T06:04:33.273Z,79.39
2023-03-20T06:06:59.900Z,79.57
2023-03-20T06:09:33.312Z,79.77
2023-03-20T06:12:07.242Z,79.94
2023-03-20T06:14:40.298Z,79.99
2023-03-20T06:17:06.941Z,80.17
2023-03-20T06:19:33.578Z,80.12
2023-03-20T06:22:07.276Z,80.45
2023-03-20T06:24:34.481Z,80.55
2023-03-20T06:27:07.277Z,80.66
2023-03-20T06:29:34.046Z,80.56
2023-03-20T06:32:07.193Z,80.50
2023-03-20T06:34:34.009Z,80.68
2023-03-20T06:37:07.264Z,80.34
2023-03-20T06:39:33.841Z,80.65
2023-03-20T06:42:07.234Z,80.14
2023-03-20T06:44:33.817Z,80.12
2023-03-20T06:47:13.286Z,80.27
2023-03-20T06:49:46.374Z,80.01
2023-03-20T06:52:24.248Z,80.32
2023-03-20T06:55:21.276Z,79.88
2023-03-20T06:57:54.528Z,79.67
2023-03-20T07:00:28.295Z,79.75
2023-03-20T07:03:02.453Z,79.81
2023-03-20T07:05:29.062Z,79.32
2023-03-20T07:08:02.316Z,79.60
2023-03-20T07:10:35.246Z,79.06
2023-03-20T07:13:02.083Z,79.06
2023-03-20T07:15:36.508Z,79.25
2023-03-20T07:18:03.309Z,79.02
2023-03-20T07:20:36.270Z,79.23
2023-03-20T07:23:02.853Z,78.00
2023-03-20T07:25:42.874Z,78.18
2023-03-20T07:28:10.011Z,78.21
2023-03-20T07:30:43.315Z,77.59
2023-03-20T07:33:10.173Z,77.94
2023-03-20T07:35:43.318Z,77.18
2023-03-20T07:38:10.095Z,77.50
2023-03-20T07:40:37.081Z,76.97
2023-03-20T07:43:10.254Z,77.41
2023-03-20T07:45:37.245Z,77.19
2023-03-20T07:48:10.356Z,76.50
2023-03-20T07:50:37.211Z,76.45
2023-03-20T07:53:10.297Z,76.30
2023-03-20T07:55:37.207Z,76.45
2023-03-20T07:58:10.292Z,76.20
2023-03-20T08:00:37.054Z,75.74
2023-03-20T08:03:10.356Z,75.51
2023-03-20T08:05:38.031Z,75.68
2023-03-20T08:08:11.333Z,75.38
2023-03-20T08:10:38.067Z,75.25
2023-03-20T08:13:11.346Z,74.98
2023-03-20T08:15:44.358Z,75.26
2023-03-20T08:18:18.618Z,74.48
2023-03-20T08:21:01.306Z,74.42
2023-03-20T08:23:28.140Z,74.39
2023-03-20T08:26:08.385Z,73.72
2023-03-20T08:28:50.902Z,73.41
2023-03-20T08:31:25.353Z,73.46
2023-03-20T08:33:52.278Z,73.17
2023-03-20T08:36:28.333Z,73.01
2023-03-20T08:39:01.398Z,73.47
2023-03-20T08:41:34.306Z,73.04
2023-03-20T08:44:01.693Z,72.73
2023-03-20T08:46:34.400Z,72.56
2023-03-20T08:49:07.432Z,72.56
2023-03-20T08:51:47.324Z,72.45
2023-03-20T08:54:16.408Z,72.29
2023-03-20T08:56:49.302Z,72.31
2023-03-20T08:59:16.516Z,72.52
2023-03-20T09:02:00.393Z,71.73
2023-03-20T09:04:27.999Z,72.03
2023-03-20T09:09:37.322Z,71.71
2023-03-20T09:12:10.372Z,71.75
2023-03-20T09:14:45.362Z,70.72
2023-03-20T09:17:12.171Z,70.73
2023-03-20T09:19:51.366Z,70.11
2023-03-20T09:22:20.912Z,70.58
2023-03-20T09:24:54.400Z,70.45
2023-03-20T09:27:21.716Z,69.74
2023-03-20T09:29:55.435Z,69.96
2023-03-20T09:32:22.045Z,68.12
2023-03-20T09:34:55.319Z,68.40
2023-03-20T09:37:22.016Z,68.79
2023-03-20T09:39:55.373Z,68.45
2023-03-20T09:42:47.364Z,67.36
2023-03-20T09:45:34.290Z,67.23
2023-03-20T09:48:18.295Z,66.39
2023-03-20T09:51:25.422Z,67.40
2023-03-20T09:54:32.460Z,66.40
2023-03-20T09:57:35.524Z,66.41
2023-03-20T10:00:10.419Z,66.70
2023-03-20T10:02:54.380Z,65.86
2023-03-20T10:05:28.159Z,66.11
2023-03-20T10:08:03.351Z,65.56
2023-03-20T10:10:39.062Z,65.58
2023-03-20T10:13:27.362Z,65.86
2023-03-20T10:16:12.484Z,66.68
2023-03-20T10:18:50.342Z,66.58
2023-03-20T10:21:24.991Z,67.16
2023-03-20T10:24:09.362Z,66.29
2023-03-20T10:26:44.429Z,66.92
2023-03-20T10:29:29.295Z,66.31
2023-03-20T10:32:19.335Z,65.62
2023-03-20T10:35:16.348Z,65.97
2023-03-20T10:37:59.014Z,64.53
2023-03-20T10:40:36.858Z,64.44
2023-03-20T10:43:18.364Z,62.98
2023-03-20T10:45:53.377Z,63.44
2023-03-20T10:48:33.927Z,63.25
2023-03-20T10:51:21.446Z,63.95
2023-03-20T10:53:56.932Z,63.19
2023-03-20T10:56:37.537Z,63.24
2023-03-20T10:59:08.883Z,63.48
2023-03-20T11:01:42.382Z,63.53
2023-03-20T11:04:15.413Z,63.57
2023-03-20T11:06:53.368Z,63.46
2023-03-20T11:09:26.851Z,63.83
2023-03-20T11:12:04.342Z,64.43
2023-03-20T11:14:37.834Z,65.17
2023-03-20T11:17:12.365Z,65.30
2023-03-20T11:19:47.431Z,66.18
2023-03-20T11:22:26.303Z,66.31
2023-03-20T11:25:02.353Z,65.91
2023-03-20T11:27:34.589Z,66.68
2023-03-20T11:30:11.397Z,66.48
2023-03-20T11:32:46.666Z,66.76
2023-03-20T11:35:37.416Z,66.86
2023-03-20T11:38:13.965Z,66.76
2023-03-20T11:40:47.404Z,66.10
2023-03-20T11:43:25.473Z,65.30
2023-03-20T11:46:07.452Z,65.02
2023-03-20T11:48:48.100Z,64.67
2023-03-20T11:51:27.362Z,65.02
2023-03-20T11:54:05.654Z,65.30
2023-03-20T11:56:40.390Z,65.08
2023-03-20T11:59:06.882Z,65.12
2023-03-20T12:01:53.419Z,64.54
2023-03-20T12:04:30.883Z,64.39
2023-03-20T12:07:17.452Z,65.06
2023-03-20T12:09:58.401Z,64.71
2023-03-20T12:12:49.421Z,65.51
2023-03-20T12:15:26.554Z,66.20
2023-03-20T12:18:38.488Z,66.78
2023-03-20T12:21:19.581Z,66.58
2023-03-20T12:24:08.425Z,66.54
2023-03-20T12:27:15.119Z,67.19
2023-03-20T12:30:16.429Z,68.13
2023-03-20T12:33:48.451Z,68.22
2023-03-20T12:36:18.626Z,67.82
2023-03-20T12:38:52.497Z,68.32
2023-03-20T12:41:31.005Z,67.78
2023-03-20T12:44:09.426Z,68.10
2023-03-20T12:47:01.936Z,68.31
2023-03-20T12:49:59.406Z,69.26
2023-03-20T12:53:08.544Z,69.20
2023-03-20T12:55:47.602Z,69.49
2023-03-20T12:58:35.704Z,69.40
2023-03-20T13:01:26.546Z,69.79
2023-03-20T13:04:23.048Z,70.01
2023-03-20T13:07:11.492Z,70.99
2023-03-20T13:10:12.585Z,71.17
2023-03-20T13:13:03.024Z,70.93
2023-03-20T13:16:14.453Z,71.00
2023-03-20T13:19:12.490Z,71.01
2023-03-20T13:21:57.455Z,71.36
2023-03-20T13:24:47.527Z,72.46
2023-03-20T13:27:14.099Z,72.65
2023-03-20T13:30:08.561Z,72.27
2023-03-20T13:32:57.524Z,72.83
2023-03-20T13:35:59.517Z,71.99
2023-03-20T13:38:41.531Z,72.39
2023-03-20T13:41:10.689Z,72.07
2023-03-20T13:43:48.457Z,71.11
2023-03-20T13:46:19.313Z,72.20
2023-03-20T13:49:00.508Z,71.90
2023-03-20T13:51:33.690Z,72.76
2023-03-20T13:54:49.459Z,73.45
2023-03-20T13:57:44.891Z,73.33
2023-03-20T14:00:38.751Z,73.71
2023-03-20T14:03:31.529Z,73.88
2023-03-20T14:06:05.442Z,74.09
2023-03-20T14:08:36.800Z,74.10
2023-03-20T14:11:13.458Z,74.22
2023-03-20T14:13:44.773Z,74.02
2023-03-20T14:16:22.512Z,74.46
2023-03-20T14:19:05.841Z,75.25
2023-03-20T14:21:41.480Z,75.08
2023-03-20T14:24:14.249Z,75.30
2023-03-20T14:26:49.476Z,75.37
2023-03-20T14:29:16.089Z,75.41
2023-03-20T14:31:51.473Z,75.36
2023-03-20T14:34:23.463Z,75.66
2023-03-20T14:37:09.491Z,76.12
2023-03-20T14:40:18.547Z,76.53
2023-03-20T14:43:20.541Z,76.51
2023-03-20T14:45:52.374Z,77.08
2023-03-20T14:48:48.565Z,77.33
2023-03-20T14:51:34.584Z,77.24
2023-03-20T14:54:37.514Z,77.91
2023-03-20T14:57:55.125Z,78.74
2023-03-20T15:00:33.599Z,79.19
2023-03-20T15:03:15.437Z,79.45
2023-03-20T15:05:48.513Z,79.92
2023-03-20T15:08:22.245Z,80.16
2023-03-20T15:11:00.635Z,80.32
2023-03-20T15:13:29.213Z,80.66
2023-03-20T15:16:13.593Z,81.26
2023-03-20T15:18:44.015Z,81.19
2023-03-20T15:21:27.643Z,81.75
2023-03-20T15:23:54.314Z,81.94
2023-03-20T15:26:29.485Z,81.27
2023-03-20T15:29:13.494Z,81.41
2023-03-20T15:31:47.514Z,81.77
2023-03-20T15:34:27.159Z,82.09
2023-03-20T15:37:04.506Z,82.16
2023-03-20T15:39:42.723Z,82.58
2023-03-20T15:42:22.574Z,82.53
2023-03-20T15:44:58.492Z,81.92
2023-03-20T15:47:32.547Z,82.06
2023-03-20T15:50:12.753Z,82.58
2023-03-20T15:52:50.552Z,83.50
2023-03-20T15:55:34.533Z,82.97
2023-03-20T15:58:09.534Z,83.62
2023-03-20T16:00:44.222Z,83.76
2023-03-20T16:03:25.586Z,83.90
2023-03-20T16:05:53.602Z,84.46
2023-03-20T16:08:37.488Z,84.28
2023-03-20T16:11:10.655Z,84.55
2023-03-20T16:13:50.546Z,84.70
2023-03-20T16:16:31.558Z,85.17
2023-03-20T16:18:59.391Z,85.57
2023-03-20T16:21:36.498Z,85.92
2023-03-20T16:24:09.219Z,86.26
2023-03-20T16:26:49.588Z,86.77
2023-03-20T16:29:24.618Z,87.07
2023-03-20T16:32:13.566Z,87.06
2023-03-20T16:34:47.574Z,87.36
2023-03-20T16:37:37.581Z,87.87
2023-03-20T16:40:19.514Z,87.60
2023-03-20T16:42:46.531Z,88.19
2023-03-20T16:45:36.596Z,87.88
2023-03-20T16:48:23.612Z,88.08
2023-03-20T16:51:10.587Z,88.22
2023-03-20T16:53:48.549Z,88.48
2023-03-20T16:56:26.232Z,88.57
2023-03-20T16:58:59.563Z,88.68
2023-03-20T17:01:35.539Z,88.92
2023-03-20T17:04:20.605Z,88.82
2023-03-20T17:06:57.584Z,88.57
2023-03-20T17:09:37.489Z,88.54
2023-03-20T17:12:24.543Z,88.75
2023-03-20T17:14:57.494Z,88.61
2023-03-20T17:17:31.556Z,88.40
2023-03-20T17:20:05.559Z,88.39
2023-03-20T17:22:33.590Z,88.90
2023-03-20T17:25:06.527Z,88.57
2023-03-20T17:27:34.423Z,88.49
2023-03-20T17:30:09.372Z,88.62
2023-03-20T17:32:38.019Z,88.50
2023-03-20T17:35:11.640Z,87.86
2023-03-20T17:37:45.595Z,88.00
2023-03-20T17:40:37.828Z,88.04
2023-03-20T17:43:15.560Z,88.29
2023-03-20T17:45:50.621Z,87.84
2023-03-20T17:48:37.617Z,87.98
2023-03-20T17:51:10.583Z,87.88
2023-03-20T17:53:57.778Z,87.75
2023-03-20T17:56:39.613Z,87.78
2023-03-20T17:59:06.821Z,87.58
2023-03-20T18:01:39.709Z,87.55
2023-03-20T18:04:06.328Z,87.68
2023-03-20T18:06:40.603Z,88.29
2023-03-20T18:09:09.009Z,87.96
2023-03-20T18:11:42.608Z,88.33
2023-03-20T18:14:09.156Z,88.37
2023-03-20T18:16:35.916Z,88.57
2023-03-20T18:19:09.595Z,89.09
2023-03-20T18:21:36.146Z,89.30
2023-03-20T18:24:09.625Z,89.38
2023-03-20T18:26:36.336Z,89.47
2023-03-20T18:29:09.621Z,89.63
2023-03-20T18:31:37.114Z,89.44
2023-03-20T18:34:11.536Z,89.35
2023-03-20T18:36:44.627Z,89.67
2023-03-20T18:39:29.549Z,89.64
2023-03-20T18:41:56.306Z,89.86
2023-03-20T18:44:29.636Z,89.43
2023-03-20T18:46:56.851Z,89.37
2023-03-20T18:49:36.600Z,89.67
2023-03-20T18:52:16.604Z,89.68
2023-03-20T18:54:55.972Z,89.44
2023-03-20T18:57:29.594Z,89.13
2023-03-20T18:59:56.268Z,89.29
2023-03-20T19:02:29.617Z,89.29
2023-03-20T19:04:56.538Z,89.40
2023-03-20T19:07:29.625Z,89.15
2023-03-20T19:09:56.441Z,89.04
2023-03-20T19:12:29.673Z,89.14
2023-03-20T19:14:56.552Z,89.14
2023-03-20T19:17:29.703Z,88.95
2023-03-20T19:20:02.628Z,88.71
2023-03-20T19:22:35.671Z,88.86
2023-03-20T19:25:02.422Z,88.65
2023-03-20T19:27:35.696Z,88.73
2023-03-20T19:30:02.641Z,88.48
2023-03-20T19:32:35.650Z,88.42
2023-03-20T19:35:46.835Z,88.56
2023-03-20T19:37:56.297Z,88.42
2023-03-20T19:40:31.526Z,88.08
2023-03-20T19:43:03.444Z,88.04
2023-03-20T19:45:39.679Z,87.88
2023-03-20T19:48:50.217Z,87.95
2023-03-20T19:51:31.712Z,87.46
2023-03-20T19:54:04.675Z,87.60
2023-03-20T19:56:31.636Z,87.31
2023-03-20T19:59:04.690Z,87.47
2023-03-20T20:01:38.719Z,87.12
2023-03-20T20:04:12.606Z,87.33
2023-03-20T20:06:42.003Z,87.51
2023-03-20T20:09:15.625Z,87.24
2023-03-20T20:11:56.007Z,87.24
2023-03-20T20:14:28.651Z,87.10
2023-03-20T20:17:02.766Z,87.03
2023-03-20T20:19:29.491Z,86.86
2023-03-20T20:22:20.029Z,86.41
2023-03-20T20:24:50.449Z,86.24
2023-03-20T20:27:25.654Z,85.98
2023-03-20T20:29:59.708Z,86.11
2023-03-20T20:32:35.839Z,85.87
2023-03-20T20:38:36.676Z,85.20
2023-03-20T20:40:51.632Z,85.22
2023-03-20T20:43:48.508Z,85.02
2023-03-20T20:46:11.456Z,85.17
2023-03-20T20:48:47.620Z,85.26
2023-03-20T20:51:22.539Z,84.87
2023-03-20T20:53:55.722Z,85.05
2023-03-20T20:56:22.322Z,84.82
2023-03-20T20:58:55.775Z,84.92
2023-03-20T21:01:22.527Z,84.72
2023-03-20T21:03:55.722Z,84.62
2023-03-20T21:06:22.809Z,84.71
2023-03-20T21:08:55.710Z,84.56
2023-03-20T21:11:28.727Z,84.52
2023-03-20T21:14:02.718Z,84.32
2023-03-20T21:16:31.217Z,84.28
2023-03-20T21:19:04.778Z,83.88
2023-03-20T21:21:31.534Z,83.69
2023-03-20T21:24:05.932Z,83.67
2023-03-20T21:26:38.729Z,83.70
2023-03-20T21:29:05.729Z,83.84
2023-03-20T21:31:38.783Z,83.92
2023-03-20T21:34:06.293Z,83.90
2023-03-20T21:36:48.668Z,83.99
2023-03-20T21:39:23.084Z,83.98
2023-03-20T21:42:01.715Z,84.00
2023-03-20T21:48:18.581Z,84.21
2023-03-20T21:50:48.342Z,84.31
2023-03-20T21:54:17.688Z,84.15
2023-03-20T21:56:42.275Z,84.33
2023-03-20T21:59:38.250Z,84.38
2023-03-20T22:08:08.910Z,84.60
2023-03-20T22:14:02.642Z,84.86
2023-03-20T22:22:34.362Z,84.94
2023-03-20T22:25:25.867Z,85.19
2023-03-20T22:28:22.484Z,85.32
2023-03-20T22:31:24.051Z,85.54
2023-03-20T22:37:04.403Z,85.83
2023-03-20T22:39:43.054Z,85.64
2023-03-20T22:42:32.930Z,85.85
2023-03-20T22:45:02.112Z,86.21
2023-03-20T22:47:40.781Z,85.94
2023-03-20T22:50:21.099Z,85.90
2023-03-20T22:52:54.800Z,85.66
2023-03-20T22:55:23.490Z,85.94
2023-03-20T22:58:06.827Z,85.93
2023-03-20T23:00:36.030Z,86.04
2023-03-20T23:03:22.364Z,85.80
2023-03-20T23:05:53.809Z,86.04
2023-03-20T23:08:28.124Z,85.75
2023-03-20T23:10:54.839Z,85.90
2023-03-20T23:13:28.702Z,86.02
2023-03-20T23:15:55.332Z,86.18
2023-03-20T23:18:28.732Z,86.53
2023-03-20T23:21:05.785Z,86.47
2023-03-20T23:23:39.710Z,86.32
2023-03-20T23:26:15.798Z,86.38
2023-03-20T23:28:52.784Z,86.32
2023-03-20T23:31:22.796Z,86.64
2023-03-20T23:33:58.779Z,86.51
2023-03-20T23:36:36.897Z,86.81
2023-03-20T23:39:15.881Z,86.46
2023-03-20T23:42:07.809Z,86.46
2023-03-20T23:44:49.901Z,86.53
2023-03-20T23:47:22.716Z,86.55
2023-03-20T23:50:02.755Z,86.01
2023-03-20T23:52:29.452Z,86.23
2023-03-20T23:55:02.786Z,86.42
2023-03-20T23:57:35.743Z,86.19
